sensor_id;sensor_type;location;lat;lon;timestamp;temperature;humidity
52439;DHT22;38359;53.150;6.504;2022-10-16T00:08:21;12.80;99.90
52439;DHT22;38359;53.150;6.504;2022-10-16T00:18:46;12.80;99.90
52439;DHT22;38359;53.150;6.504;2022-10-16T00:29:12;12.70;99.90
52439;DHT22;38359;53.150;6.504;2022-10-16T00:39:38;12.80;99.90
52439;DHT22;38359;53.150;6.504;2022-10-16T00:50:10;12.90;99.90
52439;DHT22;38359;53.150;6.504;2022-10-16T01:00:39;13.00;99.90
52439;DHT22;38359;53.150;6.504;2022-10-16T01:11:20;13.00;99.90
52439;DHT22;38359;53.150;6.504;2022-10-16T01:21:51;13.00;99.90
52439;DHT22;38359;53.150;6.504;2022-10-16T01:32:34;12.90;99.90
52439;DHT22;38359;53.150;6.504;2022-10-16T01:43:12;12.90;99.90
52439;DHT22;38359;53.150;6.504;2022-10-16T01:53:47;12.90;99.90
52439;DHT22;38359;53.150;6.504;2022-10-16T02:04:19;12.90;99.90
52439;DHT22;38359;53.150;6.504;2022-10-16T02:14:53;13.00;99.90
52439;DHT22;38359;53.150;6.504;2022-10-16T02:25:25;13.00;99.90
52439;DHT22;38359;53.150;6.504;2022-10-16T02:35:54;13.10;99.90
52439;DHT22;38359;53.150;6.504;2022-10-16T02:46:21;13.10;99.90
52439;DHT22;38359;53.150;6.504;2022-10-16T02:56:47;13.30;99.90
52439;DHT22;38359;53.150;6.504;2022-10-16T03:07:12;13.40;99.90
52439;DHT22;38359;53.150;6.504;2022-10-16T03:17:38;13.40;99.90
52439;DHT22;38359;53.150;6.504;2022-10-16T03:28:04;13.40;99.90
52439;DHT22;38359;53.150;6.504;2022-10-16T03:38:30;13.30;99.90
52439;DHT22;38359;53.150;6.504;2022-10-16T03:48:55;13.10;99.90
52439;DHT22;38359;53.150;6.504;2022-10-16T03:59:21;13.00;99.90
52439;DHT22;38359;53.150;6.504;2022-10-16T04:09:47;13.10;99.90
52439;DHT22;38359;53.150;6.504;2022-10-16T04:20:13;12.90;99.90
52439;DHT22;38359;53.150;6.504;2022-10-16T04:30:39;12.80;99.90
52439;DHT22;38359;53.150;6.504;2022-10-16T04:41:06;12.70;99.90
52439;DHT22;38359;53.150;6.504;2022-10-16T04:51:32;12.80;99.90
52439;DHT22;38359;53.150;6.504;2022-10-16T05:01:58;13.00;99.90
52439;DHT22;38359;53.150;6.504;2022-10-16T05:12:24;12.90;99.90
52439;DHT22;38359;53.150;6.504;2022-10-16T05:22:49;12.80;99.90
52439;DHT22;38359;53.150;6.504;2022-10-16T05:33:16;13.00;99.90
52439;DHT22;38359;53.150;6.504;2022-10-16T05:43:42;12.70;99.90
52439;DHT22;38359;53.150;6.504;2022-10-16T05:54:08;12.80;99.90
52439;DHT22;38359;53.150;6.504;2022-10-16T06:04:34;12.80;99.90
52439;DHT22;38359;53.150;6.504;2022-10-16T06:14:59;12.80;99.90
52439;DHT22;38359;53.150;6.504;2022-10-16T06:25:25;12.80;99.90
52439;DHT22;38359;53.150;6.504;2022-10-16T06:35:51;12.90;99.90
52439;DHT22;38359;53.150;6.504;2022-10-16T06:46:20;13.10;99.90
52439;DHT22;38359;53.150;6.504;2022-10-16T06:56:47;13.10;99.90
52439;DHT22;38359;53.150;6.504;2022-10-16T07:07:13;13.30;99.90
52439;DHT22;38359;53.150;6.504;2022-10-16T07:17:39;13.20;99.90
52439;DHT22;38359;53.150;6.504;2022-10-16T07:28:05;13.20;99.90
52439;DHT22;38359;53.150;6.504;2022-10-16T07:38:31;13.20;99.90
52439;DHT22;38359;53.150;6.504;2022-10-16T07:48:56;13.10;99.90
52439;DHT22;38359;53.150;6.504;2022-10-16T07:59:22;13.30;99.90
52439;DHT22;38359;53.150;6.504;2022-10-16T08:09:51;13.40;99.90
52439;DHT22;38359;53.150;6.504;2022-10-16T08:20:17;13.60;99.90
52439;DHT22;38359;53.150;6.504;2022-10-16T08:30:43;13.60;99.90
52439;DHT22;38359;53.150;6.504;2022-10-16T08:41:23;13.80;99.90
52439;DHT22;38359;53.150;6.504;2022-10-16T08:51:53;14.00;99.90
52439;DHT22;38359;53.150;6.504;2022-10-16T09:02:49;14.30;99.90
52439;DHT22;38359;53.150;6.504;2022-10-16T09:13:34;14.80;99.90
52439;DHT22;38359;53.150;6.504;2022-10-16T09:24:13;14.80;99.90
52439;DHT22;38359;53.150;6.504;2022-10-16T09:34:47;15.00;99.90
52439;DHT22;38359;53.150;6.504;2022-10-16T09:45:23;15.30;99.90
52439;DHT22;38359;53.150;6.504;2022-10-16T09:55:49;15.20;99.90
52439;DHT22;38359;53.150;6.504;2022-10-16T10:06:30;15.70;99.90
52439;DHT22;38359;53.150;6.504;2022-10-16T10:38:52;15.70;99.90
52439;DHT22;38359;53.150;6.504;2022-10-16T11:10:53;16.30;99.90
52439;DHT22;38359;53.150;6.504;2022-10-16T11:21:23;16.20;99.90
52439;DHT22;38359;53.150;6.504;2022-10-16T11:31:53;16.20;99.90
52439;DHT22;38359;53.150;6.504;2022-10-16T11:42:37;16.20;99.90
52439;DHT22;38359;53.150;6.504;2022-10-16T12:04:45;16.70;99.90
52439;DHT22;38359;53.150;6.504;2022-10-16T12:15:27;17.10;99.90
52439;DHT22;38359;53.150;6.504;2022-10-16T12:25:56;17.20;99.90
52439;DHT22;38359;53.150;6.504;2022-10-16T12:36:31;17.10;99.90
52439;DHT22;38359;53.150;6.504;2022-10-16T12:46:57;16.90;99.90
52439;DHT22;38359;53.150;6.504;2022-10-16T13:30:34;16.10;99.90
52439;DHT22;38359;53.150;6.504;2022-10-16T13:41:17;16.10;99.90
52439;DHT22;38359;53.150;6.504;2022-10-16T13:51:58;16.70;99.90
52439;DHT22;38359;53.150;6.504;2022-10-16T14:02:36;18.40;99.90
52439;DHT22;38359;53.150;6.504;2022-10-16T14:13:05;18.80;99.90
52439;DHT22;38359;53.150;6.504;2022-10-16T14:23:36;18.30;99.90
52439;DHT22;38359;53.150;6.504;2022-10-16T14:34:03;19.70;99.90
52439;DHT22;38359;53.150;6.504;2022-10-16T14:44:32;18.10;99.90
52439;DHT22;38359;53.150;6.504;2022-10-16T14:54:58;17.50;99.90
52439;DHT22;38359;53.150;6.504;2022-10-16T15:05:26;16.90;99.90
52439;DHT22;38359;53.150;6.504;2022-10-16T15:15:53;16.80;99.90
52439;DHT22;38359;53.150;6.504;2022-10-16T15:26:19;16.30;99.90
52439;DHT22;38359;53.150;6.504;2022-10-16T15:36:45;16.40;99.90
52439;DHT22;38359;53.150;6.504;2022-10-16T15:47:11;16.20;99.90
52439;DHT22;38359;53.150;6.504;2022-10-16T15:57:38;16.10;99.90
52439;DHT22;38359;53.150;6.504;2022-10-16T16:08:06;16.40;99.90
52439;DHT22;38359;53.150;6.504;2022-10-16T16:18:31;16.00;99.90
52439;DHT22;38359;53.150;6.504;2022-10-16T16:28:57;15.60;99.90
52439;DHT22;38359;53.150;6.504;2022-10-16T16:39:24;15.20;99.90
52439;DHT22;38359;53.150;6.504;2022-10-16T16:49:50;14.90;99.90
52439;DHT22;38359;53.150;6.504;2022-10-16T17:00:16;14.60;99.90
52439;DHT22;38359;53.150;6.504;2022-10-16T17:10:43;14.40;99.90
52439;DHT22;38359;53.150;6.504;2022-10-16T17:21:10;14.10;99.90
52439;DHT22;38359;53.150;6.504;2022-10-16T17:31:36;13.90;99.90
52439;DHT22;38359;53.150;6.504;2022-10-16T17:42:01;13.70;99.90
52439;DHT22;38359;53.150;6.504;2022-10-16T17:52:29;13.60;99.90
52439;DHT22;38359;53.150;6.504;2022-10-16T18:02:54;13.50;99.90
52439;DHT22;38359;53.150;6.504;2022-10-16T18:13:20;13.50;99.90
52439;DHT22;38359;53.150;6.504;2022-10-16T18:23:47;13.40;99.90
52439;DHT22;38359;53.150;6.504;2022-10-16T18:34:13;13.20;99.90
52439;DHT22;38359;53.150;6.504;2022-10-16T18:44:39;13.20;99.90
52439;DHT22;38359;53.150;6.504;2022-10-16T18:55:05;13.00;99.90
52439;DHT22;38359;53.150;6.504;2022-10-16T19:05:34;12.60;99.90
52439;DHT22;38359;53.150;6.504;2022-10-16T19:16:00;12.80;99.90
52439;DHT22;38359;53.150;6.504;2022-10-16T19:26:27;12.80;99.90
52439;DHT22;38359;53.150;6.504;2022-10-16T19:36:54;12.70;99.90
52439;DHT22;38359;53.150;6.504;2022-10-16T19:47:20;13.20;99.90
52439;DHT22;38359;53.150;6.504;2022-10-16T19:57:46;12.60;99.90
52439;DHT22;38359;53.150;6.504;2022-10-16T20:08:11;12.70;99.90
52439;DHT22;38359;53.150;6.504;2022-10-16T20:18:38;12.70;99.90
52439;DHT22;38359;53.150;6.504;2022-10-16T20:29:05;12.50;99.90
52439;DHT22;38359;53.150;6.504;2022-10-16T20:39:31;12.40;99.90
52439;DHT22;38359;53.150;6.504;2022-10-16T20:49:57;12.50;99.90
52439;DHT22;38359;53.150;6.504;2022-10-16T21:00:22;12.40;99.90
52439;DHT22;38359;53.150;6.504;2022-10-16T21:10:48;12.40;99.90
52439;DHT22;38359;53.150;6.504;2022-10-16T21:21:28;12.50;99.90
52439;DHT22;38359;53.150;6.504;2022-10-16T21:31:55;12.40;99.90
52439;DHT22;38359;53.150;6.504;2022-10-16T21:42:21;12.50;99.90
52439;DHT22;38359;53.150;6.504;2022-10-16T21:52:47;12.50;99.90
52439;DHT22;38359;53.150;6.504;2022-10-16T22:03:13;12.50;99.90
52439;DHT22;38359;53.150;6.504;2022-10-16T22:13:40;12.50;99.90
52439;DHT22;38359;53.150;6.504;2022-10-16T22:24:07;12.50;99.90
52439;DHT22;38359;53.150;6.504;2022-10-16T22:34:33;12.50;99.90
52439;DHT22;38359;53.150;6.504;2022-10-16T22:44:59;12.60;99.90
52439;DHT22;38359;53.150;6.504;2022-10-16T22:55:24;12.60;99.90
52439;DHT22;38359;53.150;6.504;2022-10-16T23:05:50;12.80;99.90
52439;DHT22;38359;53.150;6.504;2022-10-16T23:16:18;12.60;99.90
52439;DHT22;38359;53.150;6.504;2022-10-16T23:26:44;12.60;99.90
52439;DHT22;38359;53.150;6.504;2022-10-16T23:37:10;12.50;99.90
52439;DHT22;38359;53.150;6.504;2022-10-16T23:47:36;12.20;99.90
52439;DHT22;38359;53.150;6.504;2022-10-16T23:58:02;12.10;99.90
